createdAt,value
2022-12-25T00:01:38.940Z,101439.00
2022-12-25T00:04:05.517Z,101439.50
2022-12-25T00:06:31.981Z,101447.25
2022-12-25T00:08:58.411Z,101447.72
2022-12-25T00:11:25.656Z,101441.31
2022-12-25T00:13:52.049Z,101442.78
2022-12-25T00:16:21.799Z,101436.13
2022-12-25T00:18:48.557Z,101444.84
2022-12-25T00:21:15.311Z,101443.22
2022-12-25T00:23:41.991Z,101442.13
2022-12-25T00:26:11.486Z,101444.47
2022-12-25T00:28:38.624Z,101441.75
2022-12-25T00:31:12.935Z,101439.03
2022-12-25T00:33:41.268Z,101436.31
2022-12-25T00:36:09.278Z,101432.63
2022-12-25T00:38:37.152Z,101431.69
2022-12-25T00:41:08.236Z,101434.00
2022-12-25T00:43:36.374Z,101438.06
2022-12-25T00:46:04.193Z,101435.59
2022-12-25T00:48:31.429Z,101432.09
2022-12-25T00:51:00.296Z,101447.47
2022-12-25T00:53:27.310Z,101440.13
2022-12-25T00:55:57.312Z,101438.34
2022-12-25T00:58:24.723Z,101445.16
2022-12-25T01:00:51.442Z,101441.19
2022-12-25T01:03:18.603Z,101445.44
2022-12-25T01:05:54.793Z,101453.06
2022-12-25T01:08:21.151Z,101448.44
2022-12-25T01:11:03.461Z,101453.47
2022-12-25T01:13:31.755Z,101451.44
2022-12-25T01:15:58.272Z,101457.16
2022-12-25T01:18:25.969Z,101461.78
2022-12-25T01:20:52.355Z,101462.88
2022-12-25T01:23:18.787Z,101455.38
2022-12-25T01:25:45.207Z,101443.56
2022-12-25T01:28:11.586Z,101451.03
2022-12-25T01:30:38.040Z,101466.16
2022-12-25T01:33:04.806Z,101463.81
2022-12-25T01:35:31.283Z,101454.28
2022-12-25T01:37:57.726Z,101463.00
2022-12-25T01:40:24.109Z,101465.34
2022-12-25T01:42:50.520Z,101462.59
2022-12-25T01:45:32.199Z,101456.19
2022-12-25T01:47:59.179Z,101448.97
2022-12-25T01:50:25.833Z,101445.31
2022-12-25T01:52:52.654Z,101446.69
2022-12-25T01:55:19.362Z,101456.91
2022-12-25T01:57:45.995Z,101453.34
2022-12-25T02:00:13.290Z,101463.56
2022-12-25T02:02:40.870Z,101462.75
2022-12-25T02:05:13.924Z,101470.25
2022-12-25T02:07:41.338Z,101460.41
2022-12-25T02:10:11.634Z,101464.38
2022-12-25T02:12:38.183Z,101471.84
2022-12-25T02:15:11.113Z,101457.97
2022-12-25T02:17:58.777Z,101466.28
2022-12-25T02:21:06.656Z,101467.50
2022-12-25T02:23:50.936Z,101456.47
2022-12-25T02:26:23.442Z,101457.69
2022-12-25T02:29:01.564Z,101457.44
2022-12-25T02:31:41.496Z,101457.69
2022-12-25T02:34:20.742Z,101451.16
2022-12-25T02:36:56.118Z,101443.28
2022-12-25T02:39:50.732Z,101436.19
2022-12-25T02:42:45.686Z,101440.13
2022-12-25T02:45:33.086Z,101437.97
2022-12-25T02:48:18.302Z,101429.94
2022-12-25T02:51:03.314Z,101423.38
2022-12-25T02:53:48.897Z,101429.66
2022-12-25T02:56:34.438Z,101424.59
2022-12-25T02:59:19.987Z,101424.50
2022-12-25T03:02:05.309Z,101419.31
2022-12-25T03:04:50.937Z,101411.56
2022-12-25T03:07:21.533Z,101410.75
2022-12-25T03:10:19.863Z,101410.03
2022-12-25T03:12:52.345Z,101396.03
2022-12-25T03:15:37.980Z,101387.72
2022-12-25T03:18:09.824Z,101391.69
2022-12-25T03:20:55.749Z,101399.84
2022-12-25T03:23:44.322Z,101386.91
2022-12-25T03:26:29.289Z,101382.28
2022-12-25T03:28:55.704Z,101387.31
2022-12-25T03:31:28.738Z,101400.53
2022-12-25T03:34:23.051Z,101401.63
2022-12-25T03:37:29.807Z,101395.75
2022-12-25T03:40:30.367Z,101400.25
2022-12-25T03:43:36.950Z,101398.75
2022-12-25T03:46:23.692Z,101399.16
2022-12-25T03:49:11.502Z,101407.59
2022-12-25T03:51:57.563Z,101405.00
2022-12-25T03:54:44.133Z,101392.88
2022-12-25T03:57:29.920Z,101388.50
2022-12-25T04:00:14.991Z,101394.09
2022-12-25T04:02:59.937Z,101381.28
2022-12-25T04:05:45.475Z,101379.63
2022-12-25T04:08:30.551Z,101386.31
2022-12-25T04:11:15.708Z,101387.00
2022-12-25T04:14:00.775Z,101378.56
2022-12-25T04:16:45.552Z,101371.34
2022-12-25T04:19:30.566Z,101370.78
2022-12-25T04:22:15.679Z,101376.50
2022-12-25T04:25:00.625Z,101384.97
2022-12-25T04:27:46.055Z,101393.81
2022-12-25T04:30:31.415Z,101399.13
2022-12-25T04:33:19.490Z,101398.31
2022-12-25T04:36:06.246Z,101393.69
2022-12-25T04:38:33.143Z,101386.41
2022-12-25T04:41:00.765Z,101388.75
2022-12-25T04:43:27.222Z,101389.53
2022-12-25T04:45:54.855Z,101385.03
2022-12-25T04:48:21.404Z,101374.81
2022-12-25T04:50:48.090Z,101376.44
2022-12-25T04:53:14.752Z,101385.56
2022-12-25T04:55:41.134Z,101383.97
2022-12-25T04:58:07.710Z,101365.56
2022-12-25T05:00:34.164Z,101375.63
2022-12-25T05:03:00.790Z,101383.38
2022-12-25T05:05:27.334Z,101379.72
2022-12-25T05:07:53.771Z,101378.66
2022-12-25T05:10:20.404Z,101367.63
2022-12-25T05:12:46.862Z,101347.84
2022-12-25T05:15:13.293Z,101345.28
2022-12-25T05:17:39.716Z,101357.69
2022-12-25T05:20:06.780Z,101363.25
2022-12-25T05:22:33.269Z,101356.75
2022-12-25T05:24:59.705Z,101352.53
2022-12-25T05:27:26.173Z,101346.56
2022-12-25T05:29:52.601Z,101349.97
2022-12-25T05:32:18.969Z,101344.91
2022-12-25T05:34:45.410Z,101333.50
2022-12-25T05:37:11.891Z,101332.16
2022-12-25T05:39:38.433Z,101339.38
2022-12-25T05:42:04.915Z,101349.28
2022-12-25T05:44:31.310Z,101344.69
2022-12-25T05:46:57.775Z,101345.50
2022-12-25T05:49:24.266Z,101340.03
2022-12-25T05:51:50.639Z,101324.09
2022-12-25T05:54:17.100Z,101328.59
2022-12-25T05:56:43.493Z,101332.94
2022-12-25T05:59:09.969Z,101346.28
2022-12-25T06:01:36.614Z,101337.41
2022-12-25T06:04:07.082Z,101341.38
2022-12-25T06:06:38.412Z,101345.44
2022-12-25T06:09:04.775Z,101331.56
2022-12-25T06:11:31.144Z,101319.44
2022-12-25T06:13:57.576Z,101319.84
2022-12-25T06:16:23.990Z,101307.16
2022-12-25T06:18:54.257Z,101303.78
2022-12-25T06:21:20.735Z,101291.66
2022-12-25T06:23:47.333Z,101297.66
2022-12-25T06:26:18.599Z,101298.59
2022-12-25T06:28:45.383Z,101305.41
2022-12-25T06:31:17.736Z,101317.16
2022-12-25T06:33:44.803Z,101305.44
2022-12-25T06:36:14.279Z,101300.13
2022-12-25T06:38:41.066Z,101301.78
2022-12-25T06:41:10.366Z,101308.41
2022-12-25T06:43:37.530Z,101296.81
2022-12-25T06:46:09.916Z,101291.94
2022-12-25T06:48:37.398Z,101294.50
2022-12-25T06:51:04.458Z,101292.75
2022-12-25T06:53:38.857Z,101296.28
2022-12-25T06:56:08.248Z,101297.97
2022-12-25T06:58:34.654Z,101291.81
2022-12-25T07:01:06.844Z,101284.59
2022-12-25T07:03:33.757Z,101280.59
2022-12-25T07:06:00.169Z,101291.66
2022-12-25T07:08:26.533Z,101287.59
2022-12-25T07:10:52.967Z,101279.69
2022-12-25T07:13:19.386Z,101287.97
2022-12-25T07:15:45.804Z,101296.81
2022-12-25T07:18:12.182Z,101287.00
2022-12-25T07:20:38.549Z,101285.66
2022-12-25T07:23:05.004Z,101288.50
2022-12-25T07:25:37.078Z,101297.22
2022-12-25T07:28:04.028Z,101299.81
2022-12-25T07:30:30.416Z,101289.19
2022-12-25T07:32:57.427Z,101292.69
2022-12-25T07:35:23.942Z,101290.91
2022-12-25T07:37:50.405Z,101298.00
2022-12-25T07:40:16.841Z,101296.38
2022-12-25T07:42:43.250Z,101300.84
2022-12-25T07:45:10.165Z,101289.72
2022-12-25T07:47:36.532Z,101312.16
2022-12-25T07:50:03.117Z,101314.47
2022-12-25T07:52:29.542Z,101318.66
2022-12-25T07:54:55.931Z,101312.69
2022-12-25T07:57:22.386Z,101307.91
2022-12-25T07:59:48.752Z,101304.19
2022-12-25T08:02:15.462Z,101306.34
2022-12-25T08:04:42.199Z,101301.31
2022-12-25T08:07:08.706Z,101306.50
2022-12-25T08:09:35.265Z,101311.00
2022-12-25T08:12:01.632Z,101315.78
2022-12-25T08:14:30.045Z,101329.41
2022-12-25T08:16:56.531Z,101328.59
2022-12-25T08:19:22.930Z,101344.94
2022-12-25T08:21:49.363Z,101337.47
2022-12-25T08:24:15.918Z,101324.28
2022-12-25T08:26:42.434Z,101343.47
2022-12-25T08:29:08.896Z,101338.28
2022-12-25T08:31:38.354Z,101327.94
2022-12-25T08:34:09.455Z,101318.25
2022-12-25T08:36:36.385Z,101331.06
2022-12-25T08:39:03.550Z,101325.88
2022-12-25T08:41:30.628Z,101327.22
2022-12-25T08:43:57.072Z,101323.81
2022-12-25T08:46:23.866Z,101310.56
2022-12-25T08:48:50.633Z,101309.47
2022-12-25T08:51:20.185Z,101303.63
2022-12-25T08:53:47.780Z,101307.41
2022-12-25T08:56:14.839Z,101309.16
2022-12-25T08:58:41.636Z,101305.25
2022-12-25T09:01:08.564Z,101302.25
2022-12-25T09:03:35.434Z,101313.13
2022-12-25T09:06:04.215Z,101311.88
2022-12-25T09:08:30.772Z,101306.53
2022-12-25T09:11:01.714Z,101302.31
2022-12-25T09:13:28.125Z,101300.25
2022-12-25T09:15:54.528Z,101310.09
2022-12-25T09:18:21.018Z,101305.44
2022-12-25T09:20:47.389Z,101322.22
2022-12-25T09:23:14.537Z,101324.38
2022-12-25T09:25:41.034Z,101323.13
2022-12-25T09:28:07.400Z,101316.47
2022-12-25T09:30:33.854Z,101316.31
2022-12-25T09:33:00.266Z,101323.00
2022-12-25T09:35:26.778Z,101327.66
2022-12-25T09:37:53.213Z,101328.53
2022-12-25T09:40:21.708Z,101322.53
2022-12-25T09:42:48.650Z,101329.66
2022-12-25T09:45:18.816Z,101325.75
2022-12-25T09:47:47.540Z,101317.28
2022-12-25T09:50:34.406Z,101323.28
2022-12-25T09:53:01.204Z,101311.41
2022-12-25T09:55:31.242Z,101306.63
2022-12-25T09:57:59.057Z,101309.31
2022-12-25T10:00:29.269Z,101298.84
2022-12-25T10:03:11.086Z,101304.69
2022-12-25T10:06:15.853Z,101303.75
2022-12-25T10:08:47.670Z,101300.50
2022-12-25T10:11:30.976Z,101304.63
2022-12-25T10:14:12.668Z,101310.81
2022-12-25T10:16:58.269Z,101299.34
2022-12-25T10:19:46.129Z,101295.72
2022-12-25T10:22:45.790Z,101296.84
2022-12-25T10:25:22.037Z,101293.00
2022-12-25T10:28:15.451Z,101306.09
2022-12-25T10:30:45.434Z,101286.56
2022-12-25T10:33:17.141Z,101283.69
2022-12-25T10:35:43.943Z,101279.97
2022-12-25T10:38:16.326Z,101267.03
2022-12-25T10:40:54.852Z,101277.25
2022-12-25T10:43:25.735Z,101266.53
2022-12-25T10:45:52.177Z,101244.03
2022-12-25T10:48:25.834Z,101251.56
2022-12-25T10:50:52.294Z,101255.19
2022-12-25T10:53:29.187Z,101237.53
2022-12-25T10:56:01.198Z,101231.34
2022-12-25T10:58:28.258Z,101220.19
2022-12-25T11:01:02.234Z,101220.41
2022-12-25T11:03:32.020Z,101215.22
2022-12-25T11:06:00.257Z,101207.16
2022-12-25T11:08:30.090Z,101223.22
2022-12-25T11:10:58.867Z,101223.59
2022-12-25T11:13:27.632Z,101215.00
2022-12-25T11:16:06.283Z,101206.25
2022-12-25T11:18:50.405Z,101194.28
2022-12-25T11:21:24.096Z,101194.72
2022-12-25T11:24:03.122Z,101193.97
2022-12-25T11:26:36.376Z,101204.84
2022-12-25T11:29:03.583Z,101186.19
2022-12-25T11:31:37.503Z,101170.75
2022-12-25T11:34:07.980Z,101168.22
2022-12-25T11:36:52.049Z,101147.19
2022-12-25T11:39:31.820Z,101153.41
2022-12-25T11:42:19.330Z,101141.94
2022-12-25T11:44:49.184Z,101138.09
2022-12-25T11:47:21.224Z,101141.34
2022-12-25T11:50:00.140Z,101130.09
2022-12-25T11:52:30.256Z,101139.53
2022-12-25T11:55:08.444Z,101153.19
2022-12-25T11:57:35.695Z,101137.97
2022-12-25T12:00:06.929Z,101148.34
2022-12-25T12:02:56.131Z,101147.69
2022-12-25T12:05:28.497Z,101144.81
2022-12-25T12:07:59.357Z,101143.47
2022-12-25T12:10:38.163Z,101141.56
2022-12-25T12:13:32.494Z,101138.31
2022-12-25T12:15:59.132Z,101140.63
2022-12-25T12:18:25.520Z,101119.41
2022-12-25T12:21:27.374Z,101132.13
2022-12-25T12:24:04.271Z,101123.56
2022-12-25T12:26:36.651Z,101115.81
2022-12-25T12:29:04.598Z,101116.69
2022-12-25T12:31:46.517Z,101099.75
2022-12-25T12:34:26.192Z,101094.25
2022-12-25T12:36:59.806Z,101083.69
2022-12-25T12:39:34.870Z,101093.91
2022-12-25T12:42:01.598Z,101086.88
2022-12-25T12:44:32.042Z,101089.75
2022-12-25T12:46:58.523Z,101089.31
2022-12-25T12:49:30.384Z,101107.91
2022-12-25T12:52:23.774Z,101104.00
2022-12-25T12:55:02.913Z,101097.03
2022-12-25T12:57:33.106Z,101097.53
2022-12-25T13:00:08.642Z,101094.28
2022-12-25T13:03:05.259Z,101096.38
2022-12-25T13:05:58.458Z,101102.97
2022-12-25T13:08:44.721Z,101075.63
2022-12-25T13:11:23.936Z,101061.72
2022-12-25T13:13:55.093Z,101064.16
2022-12-25T13:16:33.101Z,101060.16
2022-12-25T13:19:03.764Z,101046.81
2022-12-25T13:21:30.469Z,101044.22
2022-12-25T13:24:01.824Z,101029.75
2022-12-25T13:26:29.046Z,101044.84
2022-12-25T13:28:56.212Z,101047.28
2022-12-25T13:31:27.440Z,101039.50
2022-12-25T13:34:03.002Z,101034.00
2022-12-25T13:36:35.168Z,101028.47
2022-12-25T13:39:01.701Z,101028.97
2022-12-25T13:41:59.368Z,101029.56
2022-12-25T13:44:27.845Z,101027.28
2022-12-25T13:46:54.261Z,101027.81
2022-12-25T13:49:23.246Z,101030.69
2022-12-25T13:51:50.325Z,101039.25
2022-12-25T13:54:17.507Z,101033.13
2022-12-25T13:56:52.192Z,101050.28
2022-12-25T13:59:21.000Z,101037.47
2022-12-25T14:01:48.802Z,101044.44
2022-12-25T14:04:17.527Z,101033.41
2022-12-25T14:06:44.068Z,101039.56
2022-12-25T14:09:12.116Z,101034.66
2022-12-25T14:11:39.304Z,101033.50
2022-12-25T14:14:20.349Z,101033.78
2022-12-25T14:16:49.325Z,101038.66
2022-12-25T14:19:28.198Z,101037.16
2022-12-25T14:22:16.465Z,101038.16
2022-12-25T14:24:42.959Z,101041.19
2022-12-25T14:27:19.791Z,101047.84
2022-12-25T14:29:47.142Z,101032.97
2022-12-25T14:32:19.304Z,101028.25
2022-12-25T14:34:47.591Z,101032.28
2022-12-25T14:37:18.201Z,101034.38
2022-12-25T14:39:47.978Z,101029.19
2022-12-25T14:42:23.145Z,101012.84
2022-12-25T14:44:59.810Z,101011.75
2022-12-25T14:47:26.879Z,101004.47
2022-12-25T14:49:54.522Z,101008.03
2022-12-25T14:52:31.480Z,101009.34
2022-12-25T14:55:00.701Z,101014.84
2022-12-25T14:57:30.256Z,101006.38
2022-12-25T14:59:59.919Z,101009.16
2022-12-25T15:02:26.766Z,101014.84
2022-12-25T15:04:53.580Z,101017.59
2022-12-25T15:07:38.141Z,101007.00
2022-12-25T15:12:53.613Z,101021.94
2022-12-25T15:15:20.053Z,101014.66
2022-12-25T15:17:46.437Z,101009.66
2022-12-25T15:20:13.815Z,101012.19
2022-12-25T15:23:10.334Z,101015.13
2022-12-25T15:25:27.718Z,101013.50
2022-12-25T15:27:54.412Z,101018.69
2022-12-25T15:30:20.802Z,101024.38
2022-12-25T15:32:47.321Z,101020.03
2022-12-25T15:35:16.613Z,101022.56
2022-12-25T15:37:43.066Z,101019.53
2022-12-25T15:40:12.522Z,101016.41
2022-12-25T15:42:39.249Z,101015.78
2022-12-25T15:45:06.629Z,101009.97
2022-12-25T15:47:33.361Z,101004.28
2022-12-25T15:49:59.732Z,100998.59
2022-12-25T15:52:26.159Z,100996.34
2022-12-25T15:54:54.062Z,100995.06
2022-12-25T15:57:22.234Z,100988.94
2022-12-25T15:59:48.654Z,100991.53
2022-12-25T16:02:17.784Z,100999.28
2022-12-25T16:04:44.383Z,101002.47
2022-12-25T16:07:15.704Z,101001.97
2022-12-25T16:09:42.213Z,101002.34
2022-12-25T16:12:08.605Z,101008.31
2022-12-25T16:14:35.093Z,101004.78
2022-12-25T16:17:01.479Z,101009.44
2022-12-25T16:19:30.655Z,101001.19
2022-12-25T16:21:57.128Z,101001.53
2022-12-25T16:24:23.736Z,100994.56
2022-12-25T16:26:50.111Z,100989.22
2022-12-25T16:29:16.609Z,100989.75
2022-12-25T16:31:42.993Z,100998.00
2022-12-25T16:34:09.850Z,100987.66
2022-12-25T16:36:36.849Z,100984.56
2022-12-25T16:39:04.138Z,100978.88
2022-12-25T16:41:30.719Z,100971.91
2022-12-25T16:44:02.942Z,100973.69
2022-12-25T16:46:29.399Z,100970.13
2022-12-25T16:48:55.780Z,100974.03
2022-12-25T16:51:22.229Z,100963.81
2022-12-25T16:53:48.621Z,100963.69
2022-12-25T16:56:18.167Z,100963.81
2022-12-25T16:58:48.520Z,100968.84
2022-12-25T17:01:17.772Z,100969.81
2022-12-25T17:03:44.530Z,100959.44
2022-12-25T17:06:15.797Z,100961.38
2022-12-25T17:08:42.708Z,100958.34
2022-12-25T17:11:09.344Z,100954.28
2022-12-25T17:13:35.855Z,100960.44
2022-12-25T17:16:17.757Z,100969.97
2022-12-25T17:18:44.512Z,100970.63
2022-12-25T17:21:11.417Z,100967.22
2022-12-25T17:23:38.401Z,100974.97
2022-12-25T17:26:05.370Z,100970.44
2022-12-25T17:28:32.305Z,100970.13
2022-12-25T17:31:06.805Z,100976.44
2022-12-25T17:33:36.252Z,100970.09
2022-12-25T17:36:04.461Z,100968.81
2022-12-25T17:38:32.034Z,100961.00
2022-12-25T17:40:59.666Z,100962.63
2022-12-25T17:43:26.154Z,100971.69
2022-12-25T17:45:52.670Z,100966.38
2022-12-25T17:48:19.231Z,100972.69
2022-12-25T17:50:46.237Z,100971.22
2022-12-25T17:53:12.662Z,100982.25
2022-12-25T17:55:41.090Z,100981.16
2022-12-25T17:58:08.368Z,100984.06
2022-12-25T18:00:35.597Z,100979.31
2022-12-25T18:03:10.542Z,100975.97
2022-12-25T18:05:37.856Z,100968.00
2022-12-25T18:08:05.235Z,100960.09
2022-12-25T18:10:36.697Z,100947.56
2022-12-25T18:13:03.266Z,100963.47
2022-12-25T18:15:30.589Z,100955.06
2022-12-25T18:17:57.053Z,100952.47
2022-12-25T18:20:23.578Z,100946.78
2022-12-25T18:22:50.000Z,100942.91
2022-12-25T18:25:16.443Z,100938.03
2022-12-25T18:27:42.874Z,100934.97
2022-12-25T18:30:09.912Z,100939.22
2022-12-25T18:32:36.941Z,100955.19
2022-12-25T18:35:03.448Z,100960.09
2022-12-25T18:37:33.112Z,100957.50
2022-12-25T18:40:04.873Z,100957.16
2022-12-25T18:42:40.112Z,100962.19
2022-12-25T18:45:08.728Z,100963.81
2022-12-25T18:47:35.249Z,100969.81
2022-12-25T18:50:01.728Z,100974.63
2022-12-25T18:52:47.308Z,100975.63
2022-12-25T18:55:14.625Z,100974.13
2022-12-25T18:57:41.166Z,100966.88
2022-12-25T19:00:08.277Z,100960.72
2022-12-25T19:02:34.932Z,100970.09
2022-12-25T19:05:01.497Z,100958.09
2022-12-25T19:07:27.900Z,100950.81
2022-12-25T19:09:54.282Z,100947.13
2022-12-25T19:12:20.731Z,100953.25
2022-12-25T19:14:48.373Z,100948.88
2022-12-25T19:17:15.921Z,100952.91
2022-12-25T19:19:42.380Z,100957.25
2022-12-25T19:22:08.837Z,100953.03
2022-12-25T19:24:36.104Z,100953.84
2022-12-25T19:27:03.101Z,100942.38
2022-12-25T19:29:29.617Z,100946.56
2022-12-25T19:31:56.459Z,100952.91
2022-12-25T19:34:23.065Z,100955.00
2022-12-25T19:36:49.516Z,100956.13
2022-12-25T19:39:15.896Z,100956.94
2022-12-25T19:41:42.441Z,100963.44
2022-12-25T19:44:08.818Z,100962.94
2022-12-25T19:46:37.707Z,100964.56
2022-12-25T19:49:04.710Z,100971.03
2022-12-25T19:51:37.066Z,100966.19
2022-12-25T19:54:04.722Z,100973.59
2022-12-25T19:56:31.660Z,100966.13
2022-12-25T19:58:58.522Z,100972.81
2022-12-25T20:01:26.725Z,100965.69
2022-12-25T20:03:53.757Z,100960.66
2022-12-25T20:06:26.343Z,100965.53
2022-12-25T20:08:56.035Z,100960.84
2022-12-25T20:11:23.640Z,100961.34
2022-12-25T20:13:50.283Z,100963.75
2022-12-25T20:16:17.060Z,100968.13
2022-12-25T20:18:43.590Z,100959.72
2022-12-25T20:21:18.368Z,100970.09
2022-12-25T20:23:47.180Z,100969.44
2022-12-25T20:26:14.603Z,100971.03
2022-12-25T20:28:41.967Z,100976.56
2022-12-25T20:31:11.630Z,100963.28
2022-12-25T20:33:38.094Z,100968.63
2022-12-25T20:36:05.392Z,100969.88
2022-12-25T20:38:31.879Z,100966.19
2022-12-25T20:41:26.309Z,100961.59
2022-12-25T20:43:47.711Z,100959.22
2022-12-25T20:46:14.332Z,100958.06
2022-12-25T20:48:40.808Z,100973.47
2022-12-25T20:51:18.617Z,100971.38
2022-12-25T20:53:45.206Z,100971.53
2022-12-25T20:56:13.109Z,100978.00
2022-12-25T20:58:39.818Z,100968.16
2022-12-25T21:01:08.255Z,100979.00
2022-12-25T21:03:35.100Z,100972.19
2022-12-25T21:06:01.824Z,100983.66
2022-12-25T21:08:28.566Z,100973.97
2022-12-25T21:11:00.471Z,100983.81
2022-12-25T21:13:32.009Z,100989.28
2022-12-25T21:15:58.745Z,100994.34
2022-12-25T21:18:27.036Z,100993.84
2022-12-25T21:20:56.943Z,100995.19
2022-12-25T21:23:23.314Z,100995.53
2022-12-25T21:25:49.799Z,100997.13
2022-12-25T21:28:16.889Z,100994.84
2022-12-25T21:30:43.333Z,100996.94
2022-12-25T21:33:32.012Z,101002.13
2022-12-25T21:36:06.763Z,101003.41
2022-12-25T21:38:33.323Z,101005.84
2022-12-25T21:41:07.677Z,101005.34
2022-12-25T21:43:35.179Z,101009.91
2022-12-25T21:46:06.551Z,101012.97
2022-12-25T21:48:34.334Z,101017.16
2022-12-25T21:51:41.834Z,101023.78
2022-12-25T21:54:08.686Z,101014.19
2022-12-25T21:56:43.461Z,101015.63
2022-12-25T21:59:13.127Z,101016.97
2022-12-25T22:01:39.606Z,101015.69
2022-12-25T22:04:07.786Z,101023.31
2022-12-25T22:06:53.320Z,101021.38
2022-12-25T22:09:20.352Z,101020.53
2022-12-25T22:12:05.360Z,101020.53
2022-12-25T22:14:53.740Z,101016.47
2022-12-25T22:17:48.356Z,101018.47
2022-12-25T22:20:19.172Z,101013.25
2022-12-25T22:22:46.128Z,101015.44
2022-12-25T22:25:13.682Z,101025.66
2022-12-25T22:27:41.575Z,101015.50
2022-12-25T22:30:11.908Z,101022.38
2022-12-25T22:32:38.779Z,101037.47
2022-12-25T22:35:06.061Z,101026.63
2022-12-25T22:37:32.661Z,101024.69
2022-12-25T22:40:01.179Z,101009.50
2022-12-25T22:42:28.180Z,100996.03
2022-12-25T22:44:54.625Z,100992.50
2022-12-25T22:47:21.161Z,100984.72
2022-12-25T22:49:47.564Z,100994.78
2022-12-25T22:52:13.938Z,100997.22
2022-12-25T22:54:40.489Z,100981.31
2022-12-25T22:57:07.040Z,100975.06
2022-12-25T22:59:33.525Z,100984.97
2022-12-25T23:02:00.631Z,101001.97
2022-12-25T23:04:28.128Z,101013.16
2022-12-25T23:06:54.650Z,100999.53
2022-12-25T23:09:24.878Z,101008.28
2022-12-25T23:11:51.465Z,101011.03
2022-12-25T23:14:36.494Z,101005.38
2022-12-25T23:17:02.932Z,101002.31
2022-12-25T23:19:48.036Z,100992.25
2022-12-25T23:22:32.720Z,100987.47
2022-12-25T23:25:17.766Z,100983.25
2022-12-25T23:27:44.946Z,100967.72
2022-12-25T23:30:16.126Z,100981.63
2022-12-25T23:32:43.591Z,100988.41
2022-12-25T23:35:10.893Z,100979.22
2022-12-25T23:37:37.312Z,100999.81
2022-12-25T23:40:04.058Z,101002.09
2022-12-25T23:42:30.437Z,100998.63
2022-12-25T23:44:56.874Z,100995.25
2022-12-25T23:47:23.319Z,101003.53
2022-12-25T23:49:49.695Z,101008.69
2022-12-25T23:52:16.133Z,101000.59
2022-12-25T23:54:42.576Z,101007.72
2022-12-25T23:57:09.013Z,101022.25
2022-12-25T23:59:35.588Z,101016.09
